Time;durP1;ratioP1;P1;durP2;ratioP2;P2;SDS_P1;SDS_P2;PMS_P1;PMS_P2;Temp;Humidity;BMP_temperature;BMP_pressure;BME280_temperature;BME280_humidity;BME280_pressure;Samples;Min_cycle;Max_cycle;Signal;HPM_P1;HPM_P2
2023/08/05 00:01:17;;;;;;;13.60;10.00;;;;;;;33.13;44.70;100066.71;107847;1252;261354;-70
2023/08/05 00:03:44;;;;;;;13.40;9.40;;;;;;;33.18;44.17;100065.39;108191;1251;59359;-69
2023/08/05 00:06:12;;;;;;;12.60;9.80;;;;;;;33.07;44.38;100062.90;108193;1253;72368;-70
2023/08/05 00:08:41;;;;;;;16.90;10.10;;;;;;;33.01;44.72;100060.52;108254;1253;61320;-69
2023/08/05 00:11:08;;;;;;;13.60;8.80;;;;;;;32.72;45.26;100058.02;108181;1254;72442;-69
2023/08/05 00:13:36;;;;;;;14.40;9.60;;;;;;;32.50;45.90;100063.23;108167;1254;60380;-69
2023/08/05 00:16:06;;;;;;;16.80;9.90;;;;;;;32.52;45.58;100057.96;108168;1254;59998;-69
2023/08/05 00:18:34;;;;;;;15.40;10.00;;;;;;;32.51;45.55;100059.71;108089;1254;73103;-70
2023/08/05 00:21:01;;;;;;;10.50;9.30;;;;;;;32.54;45.50;100061.76;108072;1254;72194;-68
2023/08/05 00:23:28;;;;;;;16.80;10.90;;;;;;;32.42;45.36;100057.86;108026;1254;72630;-69
2023/08/05 00:25:56;;;;;;;16.60;9.60;;;;;;;32.11;46.46;100055.99;108060;1256;60453;-68
2023/08/05 00:28:23;;;;;;;13.90;10.00;;;;;;;32.08;46.76;100059.61;108068;1254;59650;-68
2023/08/05 00:30:51;;;;;;;17.30;10.10;;;;;;;32.19;46.50;100056.74;108050;1254;71051;-67
2023/08/05 00:33:18;;;;;;;10.20;9.10;;;;;;;32.09;46.78;100055.30;108046;1254;69919;-69
2023/08/05 00:35:46;;;;;;;12.10;9.60;;;;;;;32.37;46.05;100056.78;108001;1257;72853;-70
2023/08/05 00:38:13;;;;;;;14.50;8.90;;;;;;;32.42;45.76;100053.71;108020;1254;61634;-69
2023/08/05 00:40:43;;;;;;;12.90;9.20;;;;;;;32.62;45.25;100047.46;108009;1254;59560;-70
2023/08/05 00:43:10;;;;;;;16.20;9.90;;;;;;;32.37;45.45;100045.34;108009;1254;73021;-70
2023/08/05 00:45:38;;;;;;;12.00;9.50;;;;;;;32.32;45.73;100050.67;108021;1254;69969;-70
2023/08/05 00:48:05;;;;;;;13.80;9.40;;;;;;;32.34;45.76;100052.44;107970;1260;63781;-68
2023/08/05 00:50:32;;;;;;;12.60;9.30;;;;;;;32.48;45.68;100054.84;107804;1254;61568;-70
2023/08/05 00:53:00;;;;;;;14.40;9.70;;;;;;;32.46;45.75;100055.08;107712;1259;59924;-70
2023/08/05 00:55:27;;;;;;;16.50;9.60;;;;;;;32.45;45.35;100051.21;107811;1254;71729;-69
2023/08/05 00:57:55;;;;;;;11.60;8.90;;;;;;;32.71;45.18;100047.41;108022;1254;61393;-71
2023/08/05 01:00:23;;;;;;;11.90;10.00;;;;;;;32.67;45.26;100048.65;108025;1257;72681;-69
2023/08/05 01:02:50;;;;;;;13.40;9.80;;;;;;;32.65;44.99;100045.63;107999;1259;60347;-67
2023/08/05 01:05:17;;;;;;;12.80;9.30;;;;;;;32.59;45.36;100045.17;108059;1254;59550;-69
2023/08/05 01:07:45;;;;;;;15.20;10.30;;;;;;;32.63;44.79;100045.70;107946;1254;72967;-69
2023/08/05 01:10:12;;;;;;;14.90;10.00;;;;;;;32.51;45.24;100048.93;107922;1254;70334;-71
2023/08/05 01:12:41;;;;;;;11.40;9.20;;;;;;;32.64;44.91;100048.30;107964;1254;72453;-70
2023/08/05 01:15:09;;;;;;;14.80;9.60;;;;;;;32.92;44.21;100050.81;107978;1260;59685;-69
2023/08/05 01:17:36;;;;;;;12.50;8.80;;;;;;;33.01;43.96;100051.27;108015;1256;59746;-70
2023/08/05 01:20:05;;;;;;;12.30;9.90;;;;;;;33.02;43.82;100050.57;107982;1254;72973;-68
2023/08/05 01:22:39;;;;;;;11.70;9.90;;;;;;;32.95;44.12;100047.09;107956;1254;61504;-69
2023/08/05 01:25:17;;;;;;;12.70;9.40;;;;;;;33.04;43.98;100049.18;108036;1254;63677;-69
2023/08/05 01:27:44;;;;;;;14.80;10.00;;;;;;;32.90;44.13;100052.83;108196;1254;59639;-70
2023/08/05 01:30:11;;;;;;;11.50;9.40;;;;;;;32.72;44.57;100055.77;108234;1252;60106;-69
2023/08/05 01:32:39;;;;;;;14.80;10.20;;;;;;;32.24;45.40;100053.64;108080;1252;71854;-70
2023/08/05 01:35:09;;;;;;;13.70;11.10;;;;;;;32.20;45.47;100055.84;107972;1254;70623;-70
2023/08/05 01:37:36;;;;;;;13.20;10.00;;;;;;;32.09;45.82;100052.55;108189;1253;72319;-68
2023/08/05 01:40:05;;;;;;;14.40;10.60;;;;;;;32.10;45.67;100049.79;108051;1252;62235;-69
2023/08/05 01:42:32;;;;;;;16.00;10.80;;;;;;;31.98;45.75;100052.86;108074;1258;59990;-70
2023/08/05 01:45:00;;;;;;;12.10;10.30;;;;;;;32.13;45.19;100058.67;108137;1254;71858;-70
2023/08/05 01:47:27;;;;;;;19.10;10.90;;;;;;;31.89;45.95;100060.54;108160;1253;69999;-71
2023/08/05 01:49:55;;;;;;;14.00;10.60;;;;;;;31.79;46.20;100057.73;108188;1254;72803;-70
2023/08/05 01:52:23;;;;;;;17.60;11.30;;;;;;;31.50;46.70;100060.87;108212;1254;61767;-71
2023/08/05 01:54:50;;;;;;;17.20;10.30;;;;;;;31.44;47.29;100067.07;108203;1254;59954;-71
2023/08/05 01:57:18;;;;;;;12.80;10.00;;;;;;;31.40;47.52;100065.55;108159;1253;73003;-70
2023/08/05 01:59:45;;;;;;;14.10;10.70;;;;;;;31.33;47.54;100067.61;108069;1254;70706;-69
2023/08/05 02:02:12;;;;;;;17.70;10.50;;;;;;;31.37;47.50;100070.45;108140;1254;72639;-71
2023/08/05 02:04:40;;;;;;;17.20;10.80;;;;;;;31.29;47.61;100076.99;108134;1253;60514;-71
2023/08/05 02:07:07;;;;;;;12.80;10.30;;;;;;;31.28;47.74;100072.91;108053;1252;60450;-67
2023/08/05 02:09:35;;;;;;;10.60;9.50;;;;;;;31.22;47.93;100076.51;108138;1254;73060;-69
2023/08/05 02:12:02;;;;;;;15.50;11.00;;;;;;;31.08;47.89;100079.55;108138;1254;68853;-69
2023/08/05 02:14:30;;;;;;;15.80;11.00;;;;;;;31.04;47.93;100074.00;108103;1254;71386;-65
2023/08/05 02:16:58;;;;;;;12.90;11.20;;;;;;;30.98;48.18;100079.11;108195;1252;61664;-67
2023/08/05 02:19:25;;;;;;;13.70;10.80;;;;;;;30.80;48.68;100086.02;108147;1252;60016;-68
2023/08/05 02:21:53;;;;;;;17.60;10.70;;;;;;;30.76;48.69;100088.52;108119;1254;71433;-71
2023/08/05 02:24:20;;;;;;;15.00;11.70;;;;;;;30.84;48.60;100090.70;108028;1254;68060;-70
2023/08/05 02:26:48;;;;;;;13.00;11.20;;;;;;;30.76;48.69;100094.86;108062;1254;72684;-70
2023/08/05 02:29:15;;;;;;;12.90;9.70;;;;;;;30.67;49.29;100097.39;108102;1253;60794;-70
2023/08/05 02:31:43;;;;;;;16.40;11.40;;;;;;;30.59;49.29;100100.73;108111;1253;60026;-68
2023/08/05 02:34:10;;;;;;;14.00;10.90;;;;;;;30.60;49.38;100100.84;108078;1259;72364;-69
2023/08/05 02:36:38;;;;;;;15.40;11.20;;;;;;;30.61;49.30;100102.08;108077;1257;69081;-70
2023/08/05 02:39:05;;;;;;;15.10;11.40;;;;;;;30.61;49.21;100099.02;108107;1254;71789;-69
2023/08/05 02:41:33;;;;;;;14.40;10.80;;;;;;;30.75;49.09;100096.86;107908;1253;61630;-69
2023/08/05 02:44:00;;;;;;;13.40;10.80;;;;;;;30.78;48.87;100099.93;108287;1254;59530;-70
2023/08/05 02:46:28;;;;;;;14.20;12.50;;;;;;;30.78;49.04;100099.75;108183;1253;71756;-70
2023/08/05 02:48:55;;;;;;;14.60;12.10;;;;;;;30.79;49.14;100102.73;108066;1253;70058;-69
2023/08/05 02:51:22;;;;;;;13.70;11.70;;;;;;;30.63;49.31;100105.08;108040;1254;72647;-70
2023/08/05 02:53:50;;;;;;;13.40;10.60;;;;;;;30.73;49.21;100107.56;108094;1254;62059;-70
2023/08/05 02:56:17;;;;;;;14.90;13.20;;;;;;;30.87;48.82;100109.88;108029;1253;59480;-70
2023/08/05 02:58:45;;;;;;;16.90;13.00;;;;;;;30.91;48.97;100113.16;108050;1253;71775;-70
2023/08/05 03:01:12;;;;;;;17.20;12.70;;;;;;;30.98;48.74;100112.66;108005;1253;69338;-71
2023/08/05 03:03:40;;;;;;;19.00;14.10;;;;;;;30.90;48.99;100107.97;108066;1253;72706;-70
2023/08/05 03:06:07;;;;;;;15.10;12.80;;;;;;;30.96;49.04;100102.46;108052;1254;61668;-71
2023/08/05 03:08:34;;;;;;;16.70;12.30;;;;;;;31.03;48.92;100106.21;108154;1253;59650;-70
2023/08/05 03:11:02;;;;;;;17.10;13.00;;;;;;;31.01;48.99;100103.08;108162;1253;72191;-70
2023/08/05 03:13:30;;;;;;;17.40;12.60;;;;;;;30.98;49.33;100109.64;108010;1254;68572;-70
2023/08/05 03:16:11;;;;;;;18.50;13.20;;;;;;;30.86;49.47;100108.91;108008;1254;72751;-70
2023/08/05 03:18:50;;;;;;;18.00;12.60;;;;;;;30.93;49.64;100112.17;108142;1253;60391;-70
2023/08/05 03:21:18;;;;;;;17.70;12.70;;;;;;;31.02;49.61;100112.88;108043;1253;59957;-70
2023/08/05 03:23:46;;;;;;;15.70;12.30;;;;;;;31.08;49.54;100109.73;108102;1254;73023;-69
2023/08/05 03:26:14;;;;;;;19.40;11.20;;;;;;;31.28;49.36;100110.90;108139;1254;69511;-70
2023/08/05 03:28:41;;;;;;;14.70;11.70;;;;;;;31.51;48.98;100111.16;108099;1254;71196;-69
2023/08/05 03:31:09;;;;;;;17.30;11.30;;;;;;;31.73;48.76;100108.77;108049;1256;60431;-70
2023/08/05 03:33:37;;;;;;;13.40;10.30;;;;;;;32.14;48.25;100108.05;108034;1253;60110;-70
2023/08/05 03:36:05;;;;;;;13.30;10.70;;;;;;;32.57;47.68;100110.16;108089;1254;73208;-69
2023/08/05 03:38:33;;;;;;;15.70;11.10;;;;;;;33.14;46.58;100106.34;108038;1253;69920;-71
2023/08/05 03:41:04;;;;;;;9.90;8.80;;;;;;;33.62;45.32;100101.35;108045;1253;63783;-70
2023/08/05 03:43:32;;;;;;;14.20;10.00;;;;;;;34.06;44.16;100096.09;108020;1254;60269;-71
2023/08/05 03:46:01;;;;;;;10.80;9.70;;;;;;;34.37;43.64;100095.73;108130;1253;59551;-70
2023/08/05 03:48:29;;;;;;;14.60;10.30;;;;;;;34.82;42.76;100095.20;108055;1254;63069;-69
2023/08/05 03:50:56;;;;;;;15.20;9.70;;;;;;;35.25;42.01;100094.27;108036;1259;60111;-70
2023/08/05 03:53:25;;;;;;;14.40;9.20;;;;;;;35.55;40.24;100092.15;108020;1254;62484;-71
2023/08/05 03:55:53;;;;;;;11.20;9.30;;;;;;;35.64;39.21;100090.50;108011;1253;60456;-69
2023/08/05 03:58:21;;;;;;;12.60;9.20;;;;;;;35.73;38.83;100086.23;108032;1253;60402;-70
2023/08/05 04:00:50;;;;;;;13.80;8.70;;;;;;;36.00;38.39;100089.63;108039;1254;65339;-70
2023/08/05 04:03:17;;;;;;;18.00;8.80;;;;;;;36.42;37.31;100089.70;108029;1253;60921;-70
2023/08/05 04:05:46;;;;;;;9.60;7.80;;;;;;;36.58;36.78;100092.36;108142;1253;63814;-71
2023/08/05 04:08:14;;;;;;;11.70;8.70;;;;;;;36.79;36.52;100098.24;108148;1254;60344;-70
2023/08/05 04:10:41;;;;;;;11.80;7.70;;;;;;;37.08;35.96;100097.58;108055;1252;60289;-71
2023/08/05 04:13:11;;;;;;;10.00;8.00;;;;;;;37.48;35.47;100095.05;108067;1254;63691;-72
2023/08/05 04:15:39;;;;;;;15.30;8.90;;;;;;;37.67;34.84;100093.63;108045;1253;61398;-69
2023/08/05 04:18:07;;;;;;;16.10;8.30;;;;;;;37.74;34.71;100092.17;108025;1254;63723;-71
2023/08/05 04:20:36;;;;;;;11.50;8.20;;;;;;;37.87;34.62;100092.05;108033;1252;60364;-70
2023/08/05 04:23:05;;;;;;;13.20;8.80;;;;;;;37.96;34.19;100089.02;108133;1253;59053;-71
2023/08/05 04:25:34;;;;;;;10.80;7.80;;;;;;;38.21;33.88;100095.02;108171;1253;64932;-71
2023/08/05 04:28:01;;;;;;;9.40;8.10;;;;;;;38.36;33.50;100097.90;108164;1254;60226;-71
2023/08/05 04:30:29;;;;;;;9.10;7.90;;;;;;;38.53;33.20;100100.79;108250;1253;62461;-70
2023/08/05 04:32:56;;;;;;;12.70;7.90;;;;;;;38.68;33.03;100105.92;108198;1254;60357;-70
2023/08/05 04:35:23;;;;;;;10.10;8.40;;;;;;;38.73;32.80;100103.61;108211;1252;58928;-71
2023/08/05 04:37:51;;;;;;;12.20;8.30;;;;;;;38.76;32.74;100100.89;108206;1253;65063;-69
2023/08/05 04:40:18;;;;;;;12.20;8.10;;;;;;;38.83;32.39;100098.49;108176;1251;61800;-71
2023/08/05 04:42:46;;;;;;;11.40;8.30;;;;;;;39.07;32.05;100104.11;108180;1252;62440;-72
2023/08/05 04:45:13;;;;;;;11.50;8.00;;;;;;;39.13;31.95;100108.64;108136;1251;60403;-71
2023/08/05 04:47:41;;;;;;;12.70;8.50;;;;;;;39.24;31.81;100113.66;108234;1256;60367;-71
2023/08/05 04:50:09;;;;;;;10.70;7.90;;;;;;;39.41;31.77;100109.98;108176;1253;64994;-70
2023/08/05 04:52:36;;;;;;;11.80;7.80;;;;;;;39.45;31.74;100105.19;108200;1253;60396;-72
2023/08/05 04:55:09;;;;;;;14.20;8.60;;;;;;;39.37;31.71;100104.21;107980;1254;62557;-69
2023/08/05 04:57:36;;;;;;;11.00;8.50;;;;;;;39.53;31.65;100102.58;108152;1253;60434;-71
2023/08/05 05:00:05;;;;;;;10.30;8.50;;;;;;;39.78;31.31;100104.77;108192;1254;60345;-71
2023/08/05 05:02:32;;;;;;;10.50;7.80;;;;;;;40.01;30.67;100099.71;108226;1254;65351;-71
2023/08/05 05:05:00;;;;;;;11.30;8.20;;;;;;;40.26;30.37;100104.39;108210;1254;60457;-72
2023/08/05 05:07:28;;;;;;;13.40;8.50;;;;;;;40.46;30.22;100108.13;108211;1253;63887;-72
2023/08/05 05:09:55;;;;;;;15.10;7.50;;;;;;;40.55;30.01;100110.89;108192;1251;60309;-70
2023/08/05 05:12:23;;;;;;;9.00;7.00;;;;;;;40.64;30.13;100112.17;108165;1251;60297;-71
2023/08/05 05:14:50;;;;;;;9.10;7.30;;;;;;;41.06;29.58;100113.27;108237;1253;65150;-69
2023/08/05 05:17:18;;;;;;;12.40;7.70;;;;;;;41.42;29.12;100105.10;108157;1252;61429;-71
2023/08/05 05:19:45;;;;;;;11.40;7.90;;;;;;;41.65;28.63;100100.63;108178;1253;63704;-70
2023/08/05 05:22:17;;;;;;;8.40;7.00;;;;;;;41.41;28.28;100104.05;108212;1252;59568;-72
2023/08/05 05:24:45;;;;;;;10.40;7.50;;;;;;;41.36;28.38;100103.73;108231;1253;60207;-71
2023/08/05 05:27:17;;;;;;;9.20;7.00;;;;;;;41.42;28.29;100106.98;108111;1253;64915;-71
2023/08/05 05:29:45;;;;;;;8.20;7.00;;;;;;;41.70;28.28;100107.30;108085;1254;60665;-71
2023/08/05 05:32:12;;;;;;;10.90;7.80;;;;;;;42.08;27.84;100112.60;108078;1253;63750;-71
2023/08/05 05:34:40;;;;;;;9.90;7.50;;;;;;;42.32;27.00;100110.84;108073;1254;59576;-72
2023/08/05 05:37:07;;;;;;;10.20;6.30;;;;;;;42.24;26.98;100110.07;108075;1253;59064;-71
2023/08/05 05:39:35;;;;;;;10.40;7.30;;;;;;;42.18;27.23;100109.20;108127;1253;64886;-71
2023/08/05 05:42:02;;;;;;;12.10;7.50;;;;;;;41.98;27.48;100116.29;108114;1254;61375;-70
2023/08/05 05:44:30;;;;;;;11.50;7.80;;;;;;;42.02;27.57;100114.07;108142;1253;63749;-71
2023/08/05 05:46:57;;;;;;;12.60;7.40;;;;;;;42.10;27.65;100109.70;108145;1254;60433;-72
2023/08/05 05:49:24;;;;;;;10.90;7.00;;;;;;;42.06;27.59;100103.90;108148;1254;60309;-70
2023/08/05 05:51:52;;;;;;;13.90;7.90;;;;;;;41.75;27.71;100103.14;108115;1253;64894;-71
2023/08/05 05:54:19;;;;;;;14.60;7.90;;;;;;;41.56;28.14;100102.70;108126;1257;60226;-71
2023/08/05 05:56:47;;;;;;;10.40;7.40;;;;;;;41.68;28.16;100100.84;108090;1254;63710;-71
2023/08/05 05:59:14;;;;;;;11.10;7.00;;;;;;;41.97;27.91;100096.59;108086;1254;60446;-71
2023/08/05 06:01:42;;;;;;;10.90;7.30;;;;;;;42.19;27.75;100093.83;108051;1253;60457;-71
2023/08/05 06:04:09;;;;;;;11.30;7.60;;;;;;;42.30;27.63;100091.91;108091;1254;65584;-71
2023/08/05 06:06:37;;;;;;;10.30;6.90;;;;;;;42.39;27.44;100089.25;108047;1253;61386;-71
2023/08/05 06:09:06;;;;;;;11.50;7.50;;;;;;;42.11;27.55;100088.85;108151;1253;63622;-72
2023/08/05 06:11:34;;;;;;;10.80;7.00;;;;;;;42.09;27.79;100088.35;107996;1254;60167;-71
2023/08/05 06:14:01;;;;;;;11.20;6.90;;;;;;;42.18;27.67;100087.08;108073;1254;60269;-71
2023/08/05 06:16:30;;;;;;;12.40;7.30;;;;;;;42.43;27.23;100091.16;108112;1253;63775;-71
2023/08/05 06:19:00;;;;;;;12.00;7.60;;;;;;;42.74;27.21;100086.05;108115;1254;61371;-70
2023/08/05 06:21:27;;;;;;;15.00;7.20;;;;;;;42.87;27.12;100084.35;108075;1254;62424;-71
2023/08/05 06:23:54;;;;;;;16.40;7.30;;;;;;;42.99;26.68;100089.59;108103;1254;60223;-71
2023/08/05 06:26:22;;;;;;;12.30;7.30;;;;;;;43.10;26.48;100095.66;108226;1253;59317;-72
2023/08/05 06:28:50;;;;;;;13.10;6.90;;;;;;;43.10;26.44;100093.12;108184;1253;63704;-72
2023/08/05 06:31:18;;;;;;;13.80;6.30;;;;;;;43.14;26.49;100096.73;108161;1253;61380;-72
2023/08/05 06:33:45;;;;;;;8.70;6.20;;;;;;;43.33;26.17;100094.17;108163;1254;63709;-72
2023/08/05 06:36:12;;;;;;;12.60;6.20;;;;;;;43.44;25.80;100090.13;108145;1253;60447;-72
2023/08/05 06:38:40;;;;;;;10.50;6.80;;;;;;;43.45;25.73;100086.77;108188;1253;60264;-72
2023/08/05 06:41:07;;;;;;;9.30;6.10;;;;;;;43.54;25.78;100085.99;108138;1256;64447;-71
2023/08/05 06:43:34;;;;;;;11.90;6.70;;;;;;;43.71;25.51;100081.85;108266;1254;61448;-70
2023/08/05 06:46:02;;;;;;;16.10;6.60;;;;;;;43.73;25.59;100086.73;108185;1253;63704;-70
2023/08/05 06:48:29;;;;;;;13.20;6.40;;;;;;;43.75;25.32;100090.89;108187;1254;60345;-73
2023/08/05 06:50:57;;;;;;;8.60;6.40;;;;;;;43.75;25.22;100090.51;108175;1253;60320;-72
2023/08/05 06:53:25;;;;;;;8.70;5.90;;;;;;;43.68;25.07;100086.73;108203;1253;65029;-72
2023/08/05 06:56:00;;;;;;;14.80;6.60;;;;;;;43.60;24.97;100087.34;108166;1254;60280;-74
2023/08/05 06:58:29;;;;;;;14.80;7.10;;;;;;;43.46;25.08;100090.02;108149;1254;62525;-73
2023/08/05 07:00:56;;;;;;;14.70;6.50;;;;;;;43.44;24.91;100087.64;108152;1253;60762;-73
2023/08/05 07:29:22;;;;;;;8.60;6.20;;;;;;;42.25;26.18;100091.48;110975;1250;59935;-96
2023/08/05 07:50:48;;;;;;;10.40;5.90;;;;;;;43.10;24.72;100082.71;112051;1236;63263;-95
2023/08/05 07:55:13;;;;;;;12.10;5.90;;;;;;;42.50;25.45;100088.22;111451;1244;56693;-95
2023/08/05 07:58:46;;;;;;;12.70;5.70;;;;;;;42.51;25.61;100081.52;111344;1248;56579;-95
2023/08/05 08:17:42;;;;;;;16.80;5.40;;;;;;;43.40;23.94;100090.91;112149;1235;65357;-96
2023/08/05 09:06:36;;;;;;;14.30;5.10;;;;;;;42.55;23.88;100091.77;111777;1241;57478;-96
2023/08/05 09:10:05;;;;;;;13.70;5.00;;;;;;;42.73;23.47;100091.09;111708;1243;63767;-96
2023/08/05 09:28:51;;;;;;;8.70;5.00;;;;;;;43.31;23.64;100101.92;112216;1236;62994;-96
2023/08/05 09:37:13;;;;;;;10.90;5.00;;;;;;;42.80;23.72;100113.21;112178;1237;62381;-95
2023/08/05 09:40:24;;;;;;;10.00;5.40;;;;;;;43.07;23.89;100112.71;112187;1237;56670;-95
2023/08/05 09:49:49;;;;;;;11.60;5.70;;;;;;;42.26;24.85;100098.63;112202;1238;57922;-95
2023/08/05 09:53:29;;;;;;;16.10;5.70;;;;;;;42.40;24.83;100096.00;111997;1238;62803;-95
2023/08/05 09:56:32;;;;;;;10.40;5.40;;;;;;;43.30;23.70;100095.13;112108;1242;56536;-96
2023/08/05 10:00:51;;;;;;;8.00;4.90;;;;;;;43.34;23.37;100101.65;111857;1239;56583;-93
2023/08/05 10:21:55;;;;;;;8.20;4.40;;;;;;;41.84;23.69;100090.63;112168;1238;62815;-96
2023/08/05 10:26:11;;;;;;;6.50;4.40;;;;;;;41.68;23.78;100087.78;112087;1238;59849;-96
2023/08/05 10:30:24;;;;;;;12.90;5.20;;;;;;;42.23;23.42;100085.87;112098;1238;63392;-96
2023/08/05 10:41:52;;;;;;;9.60;4.80;;;;;;;42.68;23.13;100073.22;112103;1239;63296;-96
2023/08/05 10:49:42;;;;;;;9.20;4.90;;;;;;;42.88;23.15;100076.89;111704;1243;63081;-96
2023/08/05 10:56:34;;;;;;;9.70;5.30;;;;;;;42.82;23.38;100068.59;112245;1236;56661;-96
2023/08/05 11:03:49;;;;;;;11.50;5.10;;;;;;;43.35;22.76;100062.85;112274;1236;57805;-95
2023/08/05 11:08:19;;;;;;;10.20;5.30;;;;;;;43.79;22.87;100054.66;111879;1236;62630;-96
2023/08/05 11:11:36;;;;;;;8.80;5.50;;;;;;;44.27;22.46;100058.08;112112;1242;56629;-96
2023/08/05 11:16:30;;;;;;;10.30;5.40;;;;;;;44.81;21.98;100061.17;112006;1238;56677;-95
2023/08/05 11:20:49;;;;;;;5.90;4.50;;;;;;;44.89;22.12;100057.23;111765;1241;63155;-96
2023/08/05 11:25:06;;;;;;;7.80;4.80;;;;;;;44.22;22.43;100053.92;110711;1251;59804;-96
2023/08/05 12:11:55;;;;;;;8.10;4.30;;;;;;;42.84;23.84;100030.59;112391;1235;56989;-95
2023/08/05 12:16:12;;;;;;;10.20;4.20;;;;;;;42.74;24.19;100024.24;112454;1235;63007;-96
2023/08/05 12:57:15;;;;;;;7.00;3.80;;;;;;;42.39;23.77;99995.38;111963;1237;62605;-95
2023/08/05 13:11:19;;;;;;;7.70;4.20;;;;;;;42.48;23.55;99986.67;112177;1237;56858;-95
2023/08/05 20:26:04;;;;;;;16.50;11.50;;;;;;;35.99;36.07;99808.92;109703;1262;62875;-96
2023/08/05 20:46:40;;;;;;;15.50;10.10;;;;;;;35.84;36.01;99793.33;111195;1248;63978;-96
2023/08/05 21:09:16;;;;;;;15.00;11.00;;;;;;;35.74;35.61;99787.13;111106;1243;58288;-95
2023/08/05 21:20:27;;;;;;;20.20;10.90;;;;;;;35.98;35.26;99784.12;111369;1248;57504;-95
2023/08/05 21:24:29;;;;;;;17.00;11.60;;;;;;;35.80;35.60;99779.22;111143;1247;62538;-95
2023/08/05 21:28:00;;;;;;;14.90;11.10;;;;;;;35.75;35.92;99778.40;110745;1243;58519;-96
2023/08/05 21:31:37;;;;;;;17.60;11.50;;;;;;;36.00;35.45;99773.21;111306;1247;56691;-94
2023/08/05 21:35:12;;;;;;;13.00;11.30;;;;;;;35.75;35.78;99769.74;111454;1248;63618;-95
2023/08/05 21:38:35;;;;;;;14.20;11.50;;;;;;;35.70;35.99;99769.54;111079;1250;59779;-95
2023/08/05 21:42:07;;;;;;;12.30;10.30;;;;;;;35.62;36.20;99772.14;111209;1248;63068;-96
2023/08/05 21:46:07;;;;;;;12.40;11.00;;;;;;;35.58;36.27;99768.56;111868;1236;57985;-96
2023/08/05 21:49:35;;;;;;;17.00;11.00;;;;;;;35.71;35.94;99769.46;111355;1238;58935;-96
2023/08/05 21:52:59;;;;;;;15.20;12.00;;;;;;;35.77;35.91;99766.61;111383;1238;73417;-96
2023/08/05 21:56:08;;;;;;;20.90;12.60;;;;;;;35.59;36.19;99767.33;111143;1238;60835;-96
2023/08/05 21:59:15;;;;;;;17.20;12.00;;;;;;;35.50;36.58;99763.64;111080;1240;62511;-96
2023/08/05 22:07:16;;;;;;;14.30;10.90;;;;;;;35.55;36.38;99761.85;112062;1236;57051;-93
2023/08/05 22:14:09;;;;;;;23.70;12.20;;;;;;;35.35;36.63;99756.22;111820;1239;57667;-96
2023/08/05 22:21:37;;;;;;;14.70;11.60;;;;;;;35.05;37.15;99749.03;111452;1240;62484;-95
2023/08/05 22:25:50;;;;;;;15.50;11.40;;;;;;;34.65;37.99;99751.73;111382;1240;57389;-95
2023/08/05 22:40:25;;;;;;;17.70;12.20;;;;;;;34.34;38.37;99748.31;112084;1237;56833;-95
2023/08/05 22:44:02;;;;;;;16.10;10.60;;;;;;;34.41;38.20;99742.02;112019;1238;56828;-95
2023/08/05 22:47:28;;;;;;;21.10;11.70;;;;;;;34.50;38.16;99744.08;111676;1237;63752;-94
2023/08/05 22:50:29;;;;;;;17.10;11.70;;;;;;;34.49;38.24;99739.78;111327;1241;60823;-94
2023/08/05 22:53:58;;;;;;;17.40;12.30;;;;;;;34.56;38.01;99745.55;111177;1241;63962;-96
2023/08/05 22:57:06;;;;;;;12.60;11.00;;;;;;;34.79;37.60;99743.80;111002;1243;59562;-96
2023/08/05 23:00:06;;;;;;;16.10;11.90;;;;;;;34.99;37.45;99739.88;111144;1241;57456;-96
2023/08/05 23:03:02;;;;;;;17.10;11.80;;;;;;;35.03;37.26;99735.13;111325;1241;63747;-96
2023/08/05 23:06:03;;;;;;;19.90;11.90;;;;;;;35.02;37.08;99735.09;110869;1241;62750;-96
2023/08/05 23:09:19;;;;;;;16.20;12.20;;;;;;;34.71;37.66;99737.73;110875;1241;62673;-96
2023/08/05 23:12:21;;;;;;;16.40;11.60;;;;;;;34.26;38.65;99732.23;111241;1240;56817;-95
2023/08/05 23:15:48;;;;;;;17.30;12.10;;;;;;;34.46;38.27;99733.71;111168;1238;59419;-96
2023/08/05 23:18:52;;;;;;;13.90;11.10;;;;;;;34.60;37.90;99732.23;111350;1238;63588;-96
2023/08/05 23:21:56;;;;;;;15.60;11.80;;;;;;;34.30;38.60;99725.59;111852;1235;59683;-96
2023/08/05 23:25:11;;;;;;;14.50;11.00;;;;;;;34.39;38.22;99729.61;111985;1235;64826;-95
2023/08/05 23:28:04;;;;;;;14.70;10.90;;;;;;;34.29;38.40;99734.48;111571;1235;57362;-95
2023/08/05 23:31:03;;;;;;;15.90;11.80;;;;;;;34.39;38.22;99735.15;111788;1235;57151;-96
2023/08/05 23:33:48;;;;;;;14.40;10.20;;;;;;;33.88;39.12;99733.78;111921;1236;64352;-96
2023/08/05 23:37:18;;;;;;;12.90;10.80;;;;;;;33.94;38.74;99734.12;111884;1235;59808;-95
2023/08/05 23:40:46;;;;;;;15.30;11.60;;;;;;;33.99;38.85;99733.63;112056;1235;62677;-95
2023/08/05 23:44:12;;;;;;;12.80;10.80;;;;;;;34.06;38.82;99729.63;111856;1235;60529;-95
2023/08/05 23:47:37;;;;;;;15.80;12.30;;;;;;;34.38;38.10;99733.09;112066;1235;56830;-94
2023/08/05 23:50:20;;;;;;;12.90;11.10;;;;;;;34.61;37.74;99730.20;112023;1237;63713;-95
2023/08/05 23:53:51;;;;;;;12.80;11.10;;;;;;;34.51;37.91;99730.89;112206;1233;59662;-95
2023/08/05 23:57:07;;;;;;;17.40;11.40;;;;;;;34.54;38.14;99727.80;111829;1232;62661;-96
